createdAt,value
2019-04-18T00:02:28.107Z,11.70
2019-04-18T00:05:21.944Z,11.60
2019-04-18T00:07:52.066Z,11.50
2019-04-18T00:10:21.447Z,11.40
2019-04-18T00:12:51.980Z,11.30
2019-04-18T00:15:21.565Z,11.50
2019-04-18T00:17:50.689Z,11.70
2019-04-18T00:20:19.803Z,11.80
2019-04-18T00:22:48.886Z,12.00
2019-04-18T00:25:18.028Z,12.30
2019-04-18T00:27:48.413Z,12.30
2019-04-18T00:30:18.008Z,12.30
2019-04-18T00:32:47.146Z,12.20
2019-04-18T00:35:16.446Z,12.60
2019-04-18T00:37:45.730Z,12.50
2019-04-18T00:40:14.782Z,12.70
2019-04-18T00:42:44.082Z,12.80
2019-04-18T00:45:13.402Z,12.90
2019-04-18T00:47:42.521Z,13.10
2019-04-18T00:50:11.612Z,13.30
2019-04-18T00:52:40.649Z,13.50
2019-04-18T00:55:10.177Z,13.60
2019-04-18T00:57:39.129Z,13.80
2019-04-18T01:00:08.761Z,13.70
2019-04-18T01:02:37.942Z,13.50
2019-04-18T01:05:10.641Z,13.50
2019-04-18T01:07:38.388Z,13.60
2019-04-18T01:10:08.870Z,13.50
2019-04-18T01:12:38.204Z,13.40
2019-04-18T01:15:08.269Z,13.30
2019-04-18T01:17:38.151Z,13.30
2019-04-18T01:20:08.509Z,13.40
2019-04-18T01:22:38.669Z,13.40
2019-04-18T01:25:07.845Z,13.30
2019-04-18T01:27:36.913Z,13.30
2019-04-18T01:30:09.129Z,13.20
2019-04-18T01:32:38.209Z,13.20
2019-04-18T01:35:07.872Z,13.10
2019-04-18T01:37:37.001Z,13.30
2019-04-18T01:40:07.858Z,13.20
2019-04-18T01:42:52.778Z,13.10
2019-04-18T01:45:39.729Z,13.00
2019-04-18T01:48:09.308Z,13.00
2019-04-18T01:50:38.379Z,12.90
2019-04-18T01:53:07.422Z,12.80
2019-04-18T01:55:36.657Z,12.80
2019-04-18T01:58:05.893Z,12.70
2019-04-18T02:00:34.966Z,12.70
2019-04-18T02:03:04.208Z,12.70
2019-04-18T02:05:33.243Z,12.60
2019-04-18T02:08:02.360Z,12.80
2019-04-18T02:10:31.492Z,13.10
2019-04-18T02:13:00.719Z,13.20
2019-04-18T02:15:32.238Z,13.30
2019-04-18T02:18:01.124Z,13.30
2019-04-18T02:20:34.607Z,13.30
2019-04-18T02:23:05.064Z,13.50
2019-04-18T02:25:41.894Z,13.70
2019-04-18T02:28:05.682Z,13.60
2019-04-18T02:30:34.764Z,13.60
2019-04-18T02:33:07.653Z,13.80
2019-04-18T02:35:34.647Z,13.80
2019-04-18T02:38:03.758Z,13.70
2019-04-18T02:40:34.764Z,13.80
2019-04-18T02:43:03.674Z,13.70
2019-04-18T02:45:34.154Z,13.80
2019-04-18T02:48:04.170Z,13.70
2019-04-18T02:50:33.209Z,13.80
2019-04-18T02:53:02.365Z,13.70
2019-04-18T02:55:41.611Z,13.70
2019-04-18T02:58:15.600Z,13.60
2019-04-18T03:00:52.635Z,13.40
2019-04-18T03:03:27.683Z,13.30
2019-04-18T03:05:56.701Z,13.10
2019-04-18T03:08:28.144Z,13.00
2019-04-18T03:10:56.648Z,12.80
2019-04-18T03:13:25.590Z,12.70
2019-04-18T03:15:54.629Z,12.60
2019-04-18T03:18:23.733Z,12.30
2019-04-18T03:20:53.021Z,12.20
2019-04-18T03:23:22.215Z,12.30
2019-04-18T03:25:51.774Z,12.10
2019-04-18T03:28:22.015Z,12.00
2019-04-18T03:30:51.039Z,11.80
2019-04-18T03:33:23.577Z,11.60
2019-04-18T03:35:53.236Z,11.40
2019-04-18T03:38:21.575Z,11.40
2019-04-18T03:40:50.605Z,11.20
2019-04-18T03:43:19.661Z,11.00
2019-04-18T03:46:09.737Z,10.70
2019-04-18T03:48:39.515Z,10.60
2019-04-18T03:51:08.801Z,10.60
2019-04-18T03:53:37.776Z,10.40
2019-04-18T03:56:06.822Z,10.10
2019-04-18T03:58:39.115Z,10.10
2019-04-18T04:01:07.076Z,10.10
2019-04-18T04:03:36.205Z,10.20
2019-04-18T04:06:14.042Z,10.10
2019-04-18T04:08:36.092Z,9.70
2019-04-18T04:11:05.252Z,9.70
2019-04-18T04:13:34.345Z,9.70
2019-04-18T04:16:03.356Z,9.70
2019-04-18T04:18:38.754Z,9.50
2019-04-18T04:21:07.926Z,9.50
2019-04-18T04:23:36.907Z,9.50
2019-04-18T04:26:06.079Z,9.50
2019-04-18T04:28:35.545Z,9.30
2019-04-18T04:31:06.809Z,9.20
2019-04-18T04:33:35.777Z,9.10
2019-04-18T04:36:20.656Z,9.10
2019-04-18T04:38:35.576Z,9.10
2019-04-18T04:41:04.774Z,8.80
2019-04-18T04:43:33.777Z,8.90
2019-04-18T04:46:06.238Z,8.80
2019-04-18T04:48:39.772Z,8.80
2019-04-18T04:51:30.320Z,8.70
2019-04-18T04:54:06.140Z,8.80
2019-04-18T04:56:51.580Z,8.80
2019-04-18T04:59:20.035Z,8.80
2019-04-18T05:01:49.054Z,8.70
2019-04-18T05:04:20.757Z,8.70
2019-04-18T05:06:48.793Z,8.70
2019-04-18T05:09:17.945Z,8.80
2019-04-18T05:11:46.973Z,8.80
2019-04-18T05:14:16.202Z,8.90
2019-04-18T05:16:53.279Z,8.90
2019-04-18T05:19:26.293Z,8.90
2019-04-18T05:21:55.415Z,8.90
2019-04-18T05:24:25.416Z,8.90
2019-04-18T05:26:55.157Z,8.90
2019-04-18T05:29:24.494Z,9.00
2019-04-18T05:31:54.389Z,9.00
2019-04-18T05:34:24.342Z,9.00
2019-04-18T05:36:56.162Z,9.00
2019-04-18T05:39:30.211Z,9.20
2019-04-18T05:41:56.995Z,9.50
2019-04-18T05:44:28.171Z,9.90
2019-04-18T05:47:15.072Z,10.40
2019-04-18T05:49:57.193Z,10.90
2019-04-18T05:52:30.829Z,11.40
2019-04-18T05:55:00.171Z,12.20
2019-04-18T05:57:31.055Z,12.80
2019-04-18T06:00:14.849Z,13.40
2019-04-18T06:02:54.235Z,14.20
2019-04-18T06:05:51.583Z,15.00
2019-04-18T06:08:22.133Z,15.70
2019-04-18T06:10:55.474Z,16.40
2019-04-18T06:13:24.578Z,16.90
2019-04-18T06:16:18.821Z,17.70
2019-04-18T06:19:03.945Z,18.40
2019-04-18T06:21:43.302Z,18.90
2019-04-18T06:24:12.350Z,18.80
2019-04-18T06:27:12.994Z,19.40
2019-04-18T06:30:16.459Z,20.00
2019-04-18T06:32:56.579Z,20.50
2019-04-18T06:35:23.525Z,20.70
2019-04-18T06:37:52.564Z,21.00
2019-04-18T06:40:25.520Z,20.80
2019-04-18T06:42:52.450Z,20.60
2019-04-18T06:45:21.497Z,20.70
2019-04-18T06:47:50.460Z,20.90
2019-04-18T06:50:22.646Z,21.30
2019-04-18T06:52:50.252Z,21.30
2019-04-18T06:55:19.862Z,20.70
2019-04-18T06:57:49.044Z,21.70
2019-04-18T07:00:18.588Z,21.70
2019-04-18T07:02:48.167Z,21.90
2019-04-18T07:05:17.679Z,22.40
2019-04-18T07:07:49.836Z,22.40
2019-04-18T07:10:37.175Z,21.40
2019-04-18T07:13:08.664Z,21.90
2019-04-18T07:15:38.756Z,22.00
2019-04-18T07:18:07.819Z,22.30
2019-04-18T07:20:44.623Z,23.20
2019-04-18T07:23:19.110Z,24.30
2019-04-18T07:25:51.538Z,24.00
2019-04-18T07:28:24.850Z,24.30
2019-04-18T07:30:51.318Z,25.50
2019-04-18T07:33:20.382Z,26.20
2019-04-18T07:35:49.477Z,26.40
2019-04-18T07:38:22.123Z,25.40
2019-04-18T07:40:49.273Z,25.70
2019-04-18T07:43:20.837Z,26.20
2019-04-18T07:45:49.806Z,26.90
2019-04-18T07:48:19.119Z,27.50
2019-04-18T07:50:48.274Z,27.30
2019-04-18T07:53:21.470Z,27.00
2019-04-18T07:55:48.066Z,28.20
2019-04-18T07:58:17.781Z,28.50
2019-04-18T08:00:47.377Z,28.80
2019-04-18T08:03:16.412Z,29.70
2019-04-18T08:05:45.730Z,30.40
2019-04-18T08:08:15.134Z,30.70
2019-04-18T08:10:44.294Z,31.20
2019-04-18T08:13:13.486Z,31.30
2019-04-18T08:15:42.593Z,31.80
2019-04-18T08:18:12.060Z,32.10
2019-04-18T08:20:41.436Z,32.60
2019-04-18T08:23:20.009Z,33.00
2019-04-18T08:25:41.226Z,31.90
2019-04-18T08:28:12.579Z,32.30
2019-04-18T08:30:40.994Z,32.80
2019-04-18T08:33:10.034Z,33.10
2019-04-18T08:35:56.850Z,33.70
2019-04-18T08:38:44.202Z,33.70
2019-04-18T08:41:27.273Z,33.90
2019-04-18T08:44:06.386Z,33.50
2019-04-18T08:46:38.391Z,34.20
2019-04-18T08:49:13.339Z,34.50
2019-04-18T08:52:00.342Z,34.70
2019-04-18T08:54:42.888Z,34.10
2019-04-18T08:57:16.308Z,34.70
2019-04-18T08:59:47.170Z,34.50
2019-04-18T09:02:16.136Z,33.80
2019-04-18T09:04:46.203Z,34.00
2019-04-18T09:07:16.613Z,34.10
2019-04-18T09:09:45.740Z,33.90
2019-04-18T09:12:16.241Z,34.40
2019-04-18T09:14:47.415Z,34.70
2019-04-18T09:17:17.813Z,34.80
2019-04-18T09:19:47.668Z,34.10
2019-04-18T09:22:17.824Z,34.10
2019-04-18T09:24:48.468Z,34.10
2019-04-18T09:27:20.369Z,34.00
2019-04-18T09:29:54.068Z,33.90
2019-04-18T09:32:19.226Z,33.80
2019-04-18T09:34:48.258Z,34.30
2019-04-18T09:37:17.482Z,34.20
2019-04-18T09:39:47.234Z,33.40
2019-04-18T09:42:17.338Z,33.90
2019-04-18T09:44:49.435Z,33.60
2019-04-18T09:47:20.469Z,33.30
2019-04-18T09:49:48.189Z,34.10
2019-04-18T09:52:17.145Z,33.70
2019-04-18T09:54:46.207Z,34.20
2019-04-18T09:57:15.264Z,34.40
2019-04-18T09:59:44.578Z,34.40
2019-04-18T10:02:13.603Z,34.10
2019-04-18T10:04:45.494Z,34.20
2019-04-18T10:07:13.401Z,34.40
2019-04-18T10:09:42.435Z,33.80
2019-04-18T10:12:11.924Z,34.20
2019-04-18T10:14:41.249Z,34.40
2019-04-18T10:17:18.109Z,33.80
2019-04-18T10:19:52.508Z,33.30
2019-04-18T10:22:25.937Z,32.60
2019-04-18T10:25:08.696Z,33.20
2019-04-18T10:27:43.683Z,33.20
2019-04-18T10:30:31.005Z,33.00
2019-04-18T10:32:58.810Z,33.30
2019-04-18T10:35:34.185Z,33.20
2019-04-18T10:38:06.781Z,33.00
2019-04-18T10:40:34.101Z,31.70
2019-04-18T10:43:03.118Z,31.30
2019-04-18T10:45:34.107Z,31.70
2019-04-18T10:48:02.894Z,31.70
2019-04-18T10:50:32.237Z,31.30
2019-04-18T10:53:01.190Z,30.80
2019-04-18T10:55:30.214Z,29.90
2019-04-18T10:57:59.254Z,29.70
2019-04-18T11:00:42.314Z,29.20
2019-04-18T11:02:59.824Z,28.30
2019-04-18T11:05:31.350Z,28.20
2019-04-18T11:07:59.631Z,28.30
2019-04-18T11:10:30.324Z,27.90
2019-04-18T11:12:59.455Z,27.70
2019-04-18T11:15:29.059Z,26.90
2019-04-18T11:17:58.219Z,26.20
2019-04-18T11:20:27.154Z,26.40
2019-04-18T11:22:56.120Z,26.00
2019-04-18T11:25:25.285Z,25.90
2019-04-18T11:27:54.316Z,25.90
2019-04-18T11:30:29.041Z,25.90
2019-04-18T11:32:54.730Z,25.30
2019-04-18T11:35:23.679Z,25.10
2019-04-18T11:37:52.636Z,25.20
2019-04-18T11:40:21.856Z,25.30
2019-04-18T11:42:50.790Z,25.30
2019-04-18T11:45:21.502Z,24.70
2019-04-18T11:47:50.521Z,24.20
2019-04-18T11:50:19.538Z,24.20
2019-04-18T11:52:48.571Z,24.20
2019-04-18T11:55:17.682Z,23.90
2019-04-18T11:57:48.328Z,24.20
2019-04-18T12:00:35.811Z,24.20
2019-04-18T12:03:15.005Z,24.10
2019-04-18T12:05:44.142Z,24.20
2019-04-18T12:08:13.172Z,24.10
2019-04-18T12:10:42.438Z,24.10
2019-04-18T12:13:11.474Z,23.90
2019-04-18T12:15:40.714Z,23.60
2019-04-18T12:18:12.918Z,23.70
2019-04-18T12:20:40.442Z,23.70
2019-04-18T12:23:11.077Z,23.70
2019-04-18T12:25:40.219Z,23.70
2019-04-18T12:28:09.233Z,23.70
2019-04-18T12:30:38.252Z,23.60
2019-04-18T12:33:07.272Z,23.60
2019-04-18T12:35:36.319Z,23.70
2019-04-18T12:38:05.345Z,23.80
2019-04-18T12:40:34.362Z,23.80
2019-04-18T12:43:03.416Z,23.70
2019-04-18T12:45:32.430Z,23.50
2019-04-18T12:48:01.460Z,23.50
2019-04-18T12:50:30.543Z,23.60
2019-04-18T12:53:00.087Z,23.50
2019-04-18T12:55:29.248Z,23.10
2019-04-18T12:57:58.277Z,23.30
2019-04-18T13:00:27.398Z,23.40
2019-04-18T13:02:56.488Z,23.20
2019-04-18T13:05:25.577Z,23.40
2019-04-18T13:07:59.574Z,23.40
2019-04-18T13:10:39.423Z,23.50
2019-04-18T13:13:17.005Z,23.50
2019-04-18T13:15:56.379Z,23.60
2019-04-18T13:18:25.421Z,23.50
2019-04-18T13:20:54.466Z,23.30
2019-04-18T13:23:23.492Z,23.10
2019-04-18T13:25:52.625Z,23.20
2019-04-18T13:28:21.798Z,23.00
2019-04-18T13:30:50.905Z,23.10
2019-04-18T13:33:20.085Z,23.30
2019-04-18T13:35:49.190Z,23.30
2019-04-18T13:38:18.256Z,23.40
2019-04-18T13:40:47.357Z,23.30
2019-04-18T13:43:16.375Z,23.20
2019-04-18T13:45:45.413Z,23.30
2019-04-18T13:48:14.927Z,23.40
2019-04-18T13:50:43.944Z,23.40
2019-04-18T13:53:13.062Z,23.20
2019-04-18T13:55:42.090Z,23.30
2019-04-18T13:58:11.125Z,23.30
2019-04-18T14:00:40.274Z,23.30
2019-04-18T14:03:08.713Z,23.30
2019-04-18T14:05:37.745Z,23.40
2019-04-18T14:08:06.874Z,23.10
2019-04-18T14:10:36.291Z,23.20
2019-04-18T14:13:05.414Z,23.30
2019-04-18T14:15:34.464Z,23.20
2019-04-18T14:18:03.489Z,23.20
2019-04-18T14:20:32.505Z,23.30
2019-04-18T14:23:01.525Z,23.40
2019-04-18T14:25:30.602Z,23.40
2019-04-18T14:28:00.206Z,23.40
2019-04-18T14:30:29.428Z,23.30
2019-04-18T14:32:58.745Z,23.40
2019-04-18T14:35:27.801Z,23.40
2019-04-18T14:37:57.122Z,23.30
2019-04-18T14:40:26.242Z,23.20
2019-04-18T14:42:56.846Z,23.20
2019-04-18T14:45:26.009Z,23.20
2019-04-18T14:48:03.417Z,23.30
2019-04-18T14:50:25.761Z,23.10
2019-04-18T14:52:54.795Z,23.20
2019-04-18T14:55:23.823Z,23.30
2019-04-18T14:57:56.399Z,23.10
2019-04-18T15:00:41.115Z,23.20
2019-04-18T15:02:56.932Z,23.30
2019-04-18T15:05:26.166Z,23.30
2019-04-18T15:07:55.203Z,23.30
2019-04-18T15:10:24.385Z,23.20
2019-04-18T15:12:53.409Z,23.20
2019-04-18T15:15:24.203Z,23.10
2019-04-18T15:17:53.256Z,23.20
2019-04-18T15:20:22.965Z,23.20
2019-04-18T15:22:52.062Z,23.20
2019-04-18T15:25:21.465Z,23.30
2019-04-18T15:27:50.479Z,23.20
2019-04-18T15:30:19.625Z,23.30
2019-04-18T15:33:04.534Z,23.20
2019-04-18T15:35:19.661Z,23.20
2019-04-18T15:37:49.130Z,23.20
2019-04-18T15:40:25.475Z,23.30
2019-04-18T15:42:54.518Z,23.10
2019-04-18T15:45:41.317Z,23.10
2019-04-18T15:48:10.425Z,23.10
2019-04-18T15:50:39.443Z,23.10
2019-04-18T15:53:08.762Z,23.10
2019-04-18T15:55:38.070Z,23.10
2019-04-18T15:58:07.258Z,23.10
2019-04-18T16:00:36.461Z,23.10
2019-04-18T16:03:19.686Z,23.10
2019-04-18T16:05:36.793Z,23.00
2019-04-18T16:08:07.730Z,23.10
2019-04-18T16:10:37.177Z,22.90
2019-04-18T16:13:06.186Z,22.90
2019-04-18T16:15:35.201Z,22.90
2019-04-18T16:18:04.166Z,22.90
2019-04-18T16:20:33.209Z,22.90
2019-04-18T16:23:02.363Z,23.00
2019-04-18T16:25:31.497Z,22.80
2019-04-18T16:28:00.510Z,22.80
2019-04-18T16:30:30.049Z,22.80
2019-04-18T16:32:59.182Z,22.90
2019-04-18T16:35:29.006Z,22.70
2019-04-18T16:37:58.109Z,22.80
2019-04-18T16:40:27.266Z,22.70
2019-04-18T16:42:56.450Z,22.70
2019-04-18T16:45:25.458Z,22.70
2019-04-18T16:47:54.832Z,22.60
2019-04-18T16:50:25.246Z,22.60
2019-04-18T16:52:54.496Z,22.60
2019-04-18T16:55:23.521Z,22.60
2019-04-18T16:57:52.534Z,22.60
2019-04-18T17:00:28.637Z,22.60
2019-04-18T17:02:58.123Z,22.60
2019-04-18T17:05:27.554Z,22.50
2019-04-18T17:07:56.581Z,22.40
2019-04-18T17:10:26.318Z,22.40
2019-04-18T17:12:55.570Z,22.40
2019-04-18T17:15:25.077Z,22.40
2019-04-18T17:17:54.169Z,22.30
2019-04-18T17:20:31.481Z,22.20
2019-04-18T17:23:14.086Z,22.20
2019-04-18T17:25:43.445Z,22.10
2019-04-18T17:28:12.775Z,22.10
2019-04-18T17:30:41.986Z,22.00
2019-04-18T17:33:11.025Z,22.00
2019-04-18T17:35:48.275Z,21.90
2019-04-18T17:38:32.650Z,21.90
2019-04-18T17:40:49.174Z,21.80
2019-04-18T17:43:16.021Z,21.80
2019-04-18T17:46:05.430Z,21.70
2019-04-18T17:48:35.611Z,21.70
2019-04-18T17:51:06.329Z,21.60
2019-04-18T17:53:48.015Z,21.50
2019-04-18T17:56:15.818Z,21.40
2019-04-18T17:58:40.324Z,21.40
2019-04-18T18:01:09.005Z,21.30
2019-04-18T18:03:45.939Z,21.20
2019-04-18T18:06:16.230Z,21.20
2019-04-18T18:08:42.561Z,21.10
2019-04-18T18:11:12.703Z,21.00
2019-04-18T18:13:41.133Z,20.90
2019-04-18T18:16:26.610Z,20.80
2019-04-18T18:18:53.210Z,20.70
2019-04-18T18:21:26.178Z,20.70
2019-04-18T18:23:56.823Z,20.60
2019-04-18T18:26:28.877Z,20.50
2019-04-18T18:29:00.074Z,20.40
2019-04-18T18:31:32.981Z,20.20
2019-04-18T18:34:09.404Z,20.00
2019-04-18T18:36:50.838Z,19.90
2019-04-18T18:39:30.292Z,19.80
2019-04-18T18:41:54.385Z,19.70
2019-04-18T18:44:23.410Z,19.50
2019-04-18T18:46:53.641Z,19.60
2019-04-18T18:49:24.969Z,19.60
2019-04-18T18:51:55.685Z,19.50
2019-04-18T18:54:30.457Z,19.50
2019-04-18T18:56:58.958Z,19.50
2019-04-18T18:59:31.959Z,19.50
2019-04-18T19:02:03.508Z,19.50
2019-04-18T19:04:27.560Z,19.60
2019-04-18T19:06:58.582Z,19.50
2019-04-18T19:09:43.781Z,19.40
2019-04-18T19:12:09.792Z,19.40
2019-04-18T19:14:36.134Z,19.40
2019-04-18T19:17:08.787Z,19.30
2019-04-18T19:19:31.346Z,19.20
2019-04-18T19:22:03.372Z,19.20
2019-04-18T19:24:31.470Z,19.10
2019-04-18T19:27:16.493Z,19.20
2019-04-18T19:29:40.449Z,19.10
2019-04-18T19:32:06.309Z,19.00
2019-04-18T19:34:33.515Z,18.90
2019-04-18T19:37:18.010Z,18.80
2019-04-18T19:39:56.874Z,18.90
2019-04-18T19:42:10.356Z,18.90
2019-04-18T19:44:36.173Z,18.90
2019-04-18T19:47:06.515Z,18.80
2019-04-18T19:49:36.034Z,18.70
2019-04-18T19:52:07.793Z,18.70
2019-04-18T19:54:39.012Z,18.60
2019-04-18T19:57:06.911Z,18.60
2019-04-18T19:59:35.942Z,18.70
2019-04-18T20:02:04.994Z,18.70
2019-04-18T20:04:34.079Z,18.70
2019-04-18T20:07:19.696Z,18.70
2019-04-18T20:09:49.074Z,18.70
2019-04-18T20:12:19.760Z,18.80
2019-04-18T20:14:36.140Z,18.80
2019-04-18T20:17:09.007Z,18.70
2019-04-18T20:19:37.419Z,18.90
2019-04-18T20:22:09.148Z,18.80
2019-04-18T20:24:37.643Z,18.80
2019-04-18T20:27:15.046Z,18.80
2019-04-18T20:29:43.256Z,18.80
2019-04-18T20:32:08.477Z,18.80
2019-04-18T20:34:44.060Z,18.70
2019-04-18T20:37:22.304Z,18.80
2019-04-18T20:40:09.170Z,18.80
2019-04-18T20:42:27.174Z,18.70
2019-04-18T20:44:48.804Z,18.60
2019-04-18T20:47:20.823Z,18.70
2019-04-18T20:49:54.696Z,18.70
2019-04-18T20:52:38.546Z,18.60
2019-04-18T20:55:03.485Z,18.60
2019-04-18T20:57:14.109Z,18.60
2019-04-18T20:59:46.675Z,18.50
2019-04-18T21:02:14.343Z,18.40
2019-04-18T21:04:43.438Z,18.40
2019-04-18T21:07:26.905Z,18.40
2019-04-18T21:09:53.554Z,18.40
2019-04-18T21:12:13.828Z,18.40
2019-04-18T21:14:43.221Z,18.40
2019-04-18T21:17:16.698Z,18.40
2019-04-18T21:19:43.031Z,18.30
2019-04-18T21:22:12.073Z,18.30
2019-04-18T21:24:41.756Z,18.30
2019-04-18T21:27:10.954Z,18.30
2019-04-18T21:29:40.175Z,18.20
2019-04-18T21:32:10.679Z,18.20
2019-04-18T21:34:47.758Z,18.10
2019-04-18T21:37:25.798Z,18.10
2019-04-18T21:39:42.191Z,18.10
2019-04-18T21:42:12.542Z,18.10
2019-04-18T21:44:47.740Z,18.10
2019-04-18T21:47:14.407Z,18.10
2019-04-18T21:49:43.447Z,18.10
2019-04-18T21:52:14.163Z,18.00
2019-04-18T21:54:46.959Z,18.00
2019-04-18T21:57:14.353Z,17.90
2019-04-18T21:59:50.406Z,17.90
2019-04-18T22:02:21.307Z,18.00
2019-04-18T22:04:45.194Z,17.90
2019-04-18T22:07:25.467Z,17.90
2019-04-18T22:09:48.504Z,17.90
2019-04-18T22:12:16.002Z,17.90
2019-04-18T22:14:52.035Z,17.80
2019-04-18T22:17:17.997Z,17.80
2019-04-18T22:19:47.602Z,17.70
2019-04-18T22:22:20.832Z,17.70
2019-04-18T22:24:49.640Z,17.60
2019-04-18T22:27:19.031Z,17.60
2019-04-18T22:29:49.730Z,17.60
2019-04-18T22:32:19.968Z,17.50
2019-04-18T22:34:56.365Z,17.40
2019-04-18T22:37:32.370Z,17.30
2019-04-18T22:39:56.238Z,17.30
2019-04-18T22:42:23.678Z,17.20
2019-04-18T22:44:56.089Z,17.10
2019-04-18T22:47:23.533Z,17.10
2019-04-18T22:49:55.842Z,17.10
2019-04-18T22:52:26.543Z,17.10
2019-04-18T22:54:54.071Z,17.00
2019-04-18T22:57:28.830Z,16.90
2019-04-18T22:59:55.638Z,16.90
2019-04-18T23:02:24.657Z,16.80
2019-04-18T23:04:54.647Z,16.80
2019-04-18T23:07:36.797Z,16.60
2019-04-18T23:09:55.877Z,16.60
2019-04-18T23:12:33.064Z,16.50
2019-04-18T23:14:57.760Z,16.40
2019-04-18T23:17:33.193Z,16.30
2019-04-18T23:19:58.159Z,16.30
2019-04-18T23:22:28.972Z,16.10
2019-04-18T23:24:57.989Z,15.90
2019-04-18T23:27:30.612Z,15.80
2019-04-18T23:29:58.399Z,15.70
2019-04-18T23:32:32.020Z,15.70
2019-04-18T23:34:58.518Z,15.60
2019-04-18T23:37:30.596Z,15.70
2019-04-18T23:40:09.238Z,15.80
2019-04-18T23:42:44.372Z,16.00
2019-04-18T23:45:09.577Z,16.00
2019-04-18T23:47:41.338Z,15.90
2019-04-18T23:50:11.886Z,15.80
2019-04-18T23:52:41.202Z,15.90
2019-04-18T23:55:16.213Z,15.90
2019-04-18T23:57:42.905Z,15.70
